Time;durP1;ratioP1;P1;durP2;ratioP2;P2;SDS_P1;SDS_P2;PMS_P1;PMS_P2;Temp;Humidity;BMP_temperature;BMP_pressure;BME280_temperature;BME280_humidity;BME280_pressure;Samples;Min_cycle;Max_cycle;Signal;HPM_P1;HPM_P2
2021/06/21 00:00:41;;;;;;;;;;;11.90;99.90;;;;;;5095375;28;19947;-69
2021/06/21 00:03:08;;;;;;;;;;;11.90;99.90;;;;;;5095428;28;19908;-71
2021/06/21 00:05:35;;;;;;;;;;;11.90;99.90;;;;;;5095396;28;19943;-69
2021/06/21 00:08:01;;;;;;;;;;;11.90;99.90;;;;;;5095802;28;19908;-71
2021/06/21 00:10:28;;;;;;;;;;;11.90;99.90;;;;;;5096177;28;19915;-69
2021/06/21 00:12:54;;;;;;;;;;;12.00;99.90;;;;;;5095142;28;19924;-69
2021/06/21 00:15:23;;;;;;;;;;;12.00;99.90;;;;;;5097607;28;19914;-71
2021/06/21 00:17:49;;;;;;;;;;;11.90;99.90;;;;;;5096718;28;19908;-71
2021/06/21 00:20:17;;;;;;;;;;;11.90;99.90;;;;;;5096179;28;19908;-71
2021/06/21 00:22:44;;;;;;;;;;;11.90;99.90;;;;;;5093520;28;19999;-71
2021/06/21 00:25:11;;;;;;;;;;;12.00;99.90;;;;;;5093640;28;19934;-69
2021/06/21 00:27:39;;;;;;;;;;;12.00;99.90;;;;;;5094363;28;19909;-70
2021/06/21 00:30:06;;;;;;;;;;;12.00;99.90;;;;;;5087320;28;19918;-70
2021/06/21 00:32:33;;;;;;;;;;;12.10;99.90;;;;;;5076566;28;20370;-69
2021/06/21 00:35:00;;;;;;;;;;;12.10;99.90;;;;;;5073658;28;19909;-69
2021/06/21 00:37:26;;;;;;;;;;;12.10;99.90;;;;;;5073513;28;20016;-69
2021/06/21 00:39:53;;;;;;;;;;;12.10;99.90;;;;;;5092150;28;19915;-72
2021/06/21 00:42:21;;;;;;;;;;;12.20;99.90;;;;;;5094585;28;19908;-70
2021/06/21 00:44:47;;;;;;;;;;;12.20;99.90;;;;;;5093071;28;19912;-72
2021/06/21 00:47:14;;;;;;;;;;;12.30;99.90;;;;;;5094288;28;19908;-72
2021/06/21 00:49:41;;;;;;;;;;;12.40;99.90;;;;;;5094088;28;19908;-71
2021/06/21 00:52:16;;;;;;;;;;;12.50;99.90;;;;;;5094214;28;19916;-70
2021/06/21 00:54:45;;;;;;;;;;;12.60;99.90;;;;;;5093944;28;20053;-73
2021/06/21 00:57:12;;;;;;;;;;;12.70;99.90;;;;;;5094140;28;19915;-69
2021/06/21 00:59:39;;;;;;;;;;;12.80;99.90;;;;;;5092636;28;20375;-69
2021/06/21 01:02:06;;;;;;;;;;;12.90;99.90;;;;;;5094063;28;19908;-71
2021/06/21 01:04:32;;;;;;;;;;;13.00;99.90;;;;;;5094210;28;19995;-70
2021/06/21 01:06:59;;;;;;;;;;;13.10;99.90;;;;;;5093976;28;19915;-70
2021/06/21 01:09:29;;;;;;;;;;;13.30;99.90;;;;;;5093748;28;19908;-68
2021/06/21 01:12:04;;;;;;;;;;;13.40;99.90;;;;;;5092539;28;19947;-70
2021/06/21 01:14:37;;;;;;;;;;;13.40;99.90;;;;;;5093713;28;19920;-71
2021/06/21 01:17:03;;;;;;;;;;;13.50;99.90;;;;;;5093882;28;19912;-69
2021/06/21 01:19:42;;;;;;;;;;;13.60;99.90;;;;;;5093820;28;19946;-70
2021/06/21 01:22:27;;;;;;;;;;;13.60;99.90;;;;;;5093901;28;19914;-70
2021/06/21 01:24:53;;;;;;;;;;;13.70;99.90;;;;;;5092681;28;20372;-71
2021/06/21 01:27:23;;;;;;;;;;;13.70;99.90;;;;;;5093662;28;19994;-72
2021/06/21 01:30:15;;;;;;;;;;;13.70;99.90;;;;;;5093723;28;20010;-69
2021/06/21 01:33:02;;;;;;;;;;;13.70;99.90;;;;;;5088506;28;19916;-72
2021/06/21 01:35:31;;;;;;;;;;;13.90;99.90;;;;;;5094047;28;19944;-70
2021/06/21 01:37:59;;;;;;;;;;;14.00;99.90;;;;;;5093091;28;20350;-72
2021/06/21 01:40:28;;;;;;;;;;;14.10;99.90;;;;;;5092922;28;19954;-69
2021/06/21 01:42:57;;;;;;;;;;;14.30;99.90;;;;;;5093459;28;19919;-71
2021/06/21 01:45:24;;;;;;;;;;;14.30;99.90;;;;;;5093652;28;19916;-70
2021/06/21 01:47:52;;;;;;;;;;;14.40;99.90;;;;;;5093948;28;19908;-70
2021/06/21 01:50:20;;;;;;;;;;;14.50;99.90;;;;;;5100310;28;19908;-71
2021/06/21 01:52:50;;;;;;;;;;;14.60;99.90;;;;;;5096564;28;19980;-72
2021/06/21 01:55:19;;;;;;;;;;;14.60;99.90;;;;;;5098798;28;19923;-72
2021/06/21 01:57:46;;;;;;;;;;;14.60;99.90;;;;;;5093390;28;19908;-71
2021/06/21 02:00:16;;;;;;;;;;;14.60;99.90;;;;;;5089288;28;20286;-72
2021/06/21 02:02:43;;;;;;;;;;;14.40;99.90;;;;;;5076858;28;19913;-71
2021/06/21 02:05:13;;;;;;;;;;;14.20;99.90;;;;;;5071138;28;19908;-72
2021/06/21 02:07:40;;;;;;;;;;;14.10;99.90;;;;;;5082150;28;19908;-70
2021/06/21 02:10:07;;;;;;;;;;;14.00;99.90;;;;;;5091833;28;19967;-71
2021/06/21 02:12:35;;;;;;;;;;;14.00;99.90;;;;;;5085656;28;20737;-70
2021/06/21 02:15:03;;;;;;;;;;;13.80;99.90;;;;;;5075947;28;19915;-71
2021/06/21 02:17:32;;;;;;;;;;;13.70;99.90;;;;;;5072009;28;19913;-70
2021/06/21 02:19:59;;;;;;;;;;;13.80;99.90;;;;;;5072165;28;19915;-72
2021/06/21 02:22:27;;;;;;;;;;;13.60;99.90;;;;;;5072230;28;19915;-72
2021/06/21 02:24:56;;;;;;;;;;;13.50;99.90;;;;;;5071988;28;19987;-72
2021/06/21 02:27:23;;;;;;;;;;;13.50;99.90;;;;;;5072249;28;20007;-72
2021/06/21 02:29:50;;;;;;;;;;;13.40;99.90;;;;;;5071795;28;19920;-71
2021/06/21 02:32:17;;;;;;;;;;;13.50;99.90;;;;;;5072279;28;19909;-71
2021/06/21 02:34:44;;;;;;;;;;;13.60;99.90;;;;;;5072435;28;19916;-74
2021/06/21 02:37:11;;;;;;;;;;;13.60;99.90;;;;;;5089731;28;20255;-73
2021/06/21 02:39:38;;;;;;;;;;;13.50;99.90;;;;;;5092829;28;19908;-72
2021/06/21 02:42:07;;;;;;;;;;;13.60;99.90;;;;;;5092936;28;19908;-73
2021/06/21 02:44:35;;;;;;;;;;;13.60;99.90;;;;;;5093020;28;19968;-73
2021/06/21 02:47:03;;;;;;;;;;;13.60;99.90;;;;;;5092970;28;19915;-72
2021/06/21 02:49:30;;;;;;;;;;;13.70;99.90;;;;;;5095270;28;20377;-72
2021/06/21 02:51:59;;;;;;;;;;;13.70;99.90;;;;;;5096547;28;19908;-72
2021/06/21 02:54:38;;;;;;;;;;;13.70;99.90;;;;;;5096543;28;20021;-73
2021/06/21 02:57:15;;;;;;;;;;;13.70;99.90;;;;;;5096668;28;19909;-72
2021/06/21 02:59:44;;;;;;;;;;;13.70;99.90;;;;;;5096182;28;19908;-71
2021/06/21 03:02:12;;;;;;;;;;;13.70;99.90;;;;;;5096520;28;20010;-73
2021/06/21 03:04:40;;;;;;;;;;;13.70;99.90;;;;;;5096497;28;20011;-72
2021/06/21 03:07:15;;;;;;;;;;;13.80;99.90;;;;;;5095103;28;19912;-72
2021/06/21 03:09:46;;;;;;;;;;;13.80;99.90;;;;;;5096174;28;20334;-71
2021/06/21 03:12:13;;;;;;;;;;;13.70;99.90;;;;;;5096040;28;19924;-73
2021/06/21 03:14:46;;;;;;;;;;;13.70;99.90;;;;;;5096345;28;19916;-73
2021/06/21 03:17:17;;;;;;;;;;;13.90;99.90;;;;;;5096147;28;19908;-72
2021/06/21 03:19:44;;;;;;;;;;;14.00;99.90;;;;;;5095703;28;19908;-72
2021/06/21 03:22:11;;;;;;;;;;;14.20;99.90;;;;;;5095951;28;19907;-72
2021/06/21 03:24:38;;;;;;;;;;;14.40;99.90;;;;;;5094573;28;19908;-71
2021/06/21 03:27:07;;;;;;;;;;;14.40;99.90;;;;;;5096230;28;19923;-73
2021/06/21 03:29:37;;;;;;;;;;;14.30;99.90;;;;;;5102457;28;20363;-73
2021/06/21 03:32:20;;;;;;;;;;;14.30;99.90;;;;;;5100165;28;19908;-72
2021/06/21 03:34:47;;;;;;;;;;;14.30;99.90;;;;;;5098514;28;20393;-73
2021/06/21 03:37:13;;;;;;;;;;;14.00;99.90;;;;;;5096111;28;19908;-73
2021/06/21 03:39:40;;;;;;;;;;;13.70;99.90;;;;;;5093841;28;19908;-74
2021/06/21 03:42:07;;;;;;;;;;;13.50;99.90;;;;;;5095722;28;20274;-73
2021/06/21 03:44:33;;;;;;;;;;;13.50;99.90;;;;;;5095457;28;19909;-71
2021/06/21 03:47:01;;;;;;;;;;;13.50;99.90;;;;;;5095580;28;19912;-72
2021/06/21 03:49:28;;;;;;;;;;;13.40;99.90;;;;;;5095480;28;19908;-72
2021/06/21 03:51:54;;;;;;;;;;;13.50;99.90;;;;;;5093816;28;19934;-73
2021/06/21 03:54:21;;;;;;;;;;;13.40;99.90;;;;;;5095502;28;20540;-72
2021/06/21 03:56:48;;;;;;;;;;;13.40;99.90;;;;;;5095418;28;19935;-70
2021/06/21 03:59:14;;;;;;;;;;;13.50;99.90;;;;;;5095137;28;19919;-73
2021/06/21 04:01:41;;;;;;;;;;;13.60;99.90;;;;;;5095166;28;19912;-73
2021/06/21 04:04:08;;;;;;;;;;;13.60;99.90;;;;;;5095285;28;20250;-72
2021/06/21 04:06:34;;;;;;;;;;;13.60;99.90;;;;;;5095224;28;20330;-72
2021/06/21 04:09:01;;;;;;;;;;;13.50;99.90;;;;;;5095337;28;19916;-73
2021/06/21 04:11:28;;;;;;;;;;;13.50;99.90;;;;;;5095295;28;19961;-74
2021/06/21 04:13:55;;;;;;;;;;;13.50;99.90;;;;;;5094577;28;19931;-73
2021/06/21 04:16:22;;;;;;;;;;;13.50;99.90;;;;;;5095253;28;20282;-73
2021/06/21 04:18:49;;;;;;;;;;;13.50;99.90;;;;;;5095047;28;19908;-72
2021/06/21 04:21:16;;;;;;;;;;;13.50;99.90;;;;;;5094687;28;19908;-73
2021/06/21 04:23:43;;;;;;;;;;;13.40;99.90;;;;;;5094616;28;19912;-73
2021/06/21 04:26:09;;;;;;;;;;;13.50;99.90;;;;;;5094720;28;19990;-72
2021/06/21 04:28:36;;;;;;;;;;;13.50;99.90;;;;;;5094660;28;19908;-73
2021/06/21 04:31:03;;;;;;;;;;;13.40;99.90;;;;;;5094704;28;19909;-73
2021/06/21 04:33:29;;;;;;;;;;;13.20;99.90;;;;;;5094563;28;19923;-74
2021/06/21 04:35:56;;;;;;;;;;;13.10;99.90;;;;;;5094592;28;19908;-72
2021/06/21 04:38:23;;;;;;;;;;;13.00;99.90;;;;;;5094317;28;19961;-72
2021/06/21 04:40:51;;;;;;;;;;;13.10;99.90;;;;;;5094270;28;19909;-73
2021/06/21 04:43:19;;;;;;;;;;;13.00;99.90;;;;;;5094359;28;19908;-73
2021/06/21 04:45:47;;;;;;;;;;;13.00;99.90;;;;;;5094013;28;19914;-68
2021/06/21 04:48:14;;;;;;;;;;;13.00;99.90;;;;;;5094219;28;19912;-69
2021/06/21 04:50:42;;;;;;;;;;;13.00;99.90;;;;;;5094301;28;19908;-68
2021/06/21 04:53:12;;;;;;;;;;;13.00;99.90;;;;;;5093697;28;20370;-70
2021/06/21 04:55:39;;;;;;;;;;;13.00;99.90;;;;;;5093883;28;20354;-70
2021/06/21 04:58:07;;;;;;;;;;;13.10;99.90;;;;;;5094002;28;19908;-70
2021/06/21 05:00:33;;;;;;;;;;;13.10;99.90;;;;;;5094128;28;19908;-69
2021/06/21 05:03:00;;;;;;;;;;;13.10;99.90;;;;;;5093925;28;20017;-70
2021/06/21 05:05:27;;;;;;;;;;;13.10;99.90;;;;;;5094149;28;19953;-69
2021/06/21 05:07:54;;;;;;;;;;;13.10;99.90;;;;;;5094677;28;19919;-72
2021/06/21 05:10:22;;;;;;;;;;;13.20;99.90;;;;;;5097829;28;20010;-70
2021/06/21 05:12:49;;;;;;;;;;;13.20;99.90;;;;;;5097418;28;19927;-70
2021/06/21 05:15:16;;;;;;;;;;;13.30;99.90;;;;;;5095390;28;19915;-72
2021/06/21 05:17:43;;;;;;;;;;;13.30;99.90;;;;;;5093595;28;19916;-70
2021/06/21 05:20:10;;;;;;;;;;;13.40;99.90;;;;;;5093472;28;19953;-69
2021/06/21 05:22:36;;;;;;;;;;;13.40;99.90;;;;;;5093263;28;20362;-74
2021/06/21 05:25:04;;;;;;;;;;;13.50;99.90;;;;;;5093435;28;20003;-73
2021/06/21 05:27:31;;;;;;;;;;;13.40;99.90;;;;;;5093352;28;20002;-73
2021/06/21 05:29:58;;;;;;;;;;;13.40;99.90;;;;;;5093075;28;19995;-73
2021/06/21 05:32:25;;;;;;;;;;;13.40;99.90;;;;;;5093766;28;20312;-71
2021/06/21 05:34:52;;;;;;;;;;;13.40;99.90;;;;;;5093307;28;19915;-72
2021/06/21 05:37:19;;;;;;;;;;;13.40;99.90;;;;;;5093209;28;19915;-72
2021/06/21 05:39:45;;;;;;;;;;;13.40;99.90;;;;;;5092989;28;19916;-73
2021/06/21 05:42:14;;;;;;;;;;;13.40;99.90;;;;;;5093371;28;20268;-71
2021/06/21 05:44:41;;;;;;;;;;;13.50;99.90;;;;;;5093219;28;19947;-72
2021/06/21 05:47:07;;;;;;;;;;;13.50;99.90;;;;;;5093373;28;20441;-73
2021/06/21 05:49:34;;;;;;;;;;;13.50;99.90;;;;;;5093138;28;19912;-72
2021/06/21 05:52:01;;;;;;;;;;;13.40;99.90;;;;;;5092989;28;20373;-70
2021/06/21 05:54:27;;;;;;;;;;;13.40;99.90;;;;;;5093395;28;19917;-70
2021/06/21 05:56:54;;;;;;;;;;;13.40;99.90;;;;;;5093656;28;19908;-70
2021/06/21 05:59:21;;;;;;;;;;;13.30;99.90;;;;;;5094429;28;19977;-71
2021/06/21 06:01:47;;;;;;;;;;;13.30;99.90;;;;;;5093713;28;20373;-73
2021/06/21 06:04:14;;;;;;;;;;;13.30;99.90;;;;;;5093437;28;20277;-73
2021/06/21 06:06:41;;;;;;;;;;;13.30;99.90;;;;;;5093660;28;19915;-73
2021/06/21 06:09:07;;;;;;;;;;;13.30;99.90;;;;;;5093548;28;20003;-72
2021/06/21 06:11:34;;;;;;;;;;;13.40;99.90;;;;;;5093264;28;19908;-72
2021/06/21 06:14:00;;;;;;;;;;;13.50;99.90;;;;;;5093341;28;19927;-73
2021/06/21 06:16:27;;;;;;;;;;;13.50;99.90;;;;;;5093301;28;20013;-75
2021/06/21 06:18:54;;;;;;;;;;;13.50;99.90;;;;;;5093102;28;19908;-71
2021/06/21 06:21:21;;;;;;;;;;;13.50;99.90;;;;;;5093069;28;20289;-73
2021/06/21 06:23:47;;;;;;;;;;;13.50;99.90;;;;;;5095300;28;20282;-72
2021/06/21 06:26:14;;;;;;;;;;;13.60;99.90;;;;;;5096713;28;19930;-71
2021/06/21 06:28:41;;;;;;;;;;;13.60;99.90;;;;;;5096890;28;19914;-70
2021/06/21 06:31:09;;;;;;;;;;;13.60;99.90;;;;;;5097150;28;20247;-72
2021/06/21 06:33:36;;;;;;;;;;;13.60;99.90;;;;;;5096572;28;19919;-69
2021/06/21 06:36:02;;;;;;;;;;;13.60;99.90;;;;;;5096877;28;19908;-71
2021/06/21 06:38:29;;;;;;;;;;;13.50;99.90;;;;;;5096901;28;19914;-70
2021/06/21 06:40:57;;;;;;;;;;;13.40;99.90;;;;;;5096832;28;19912;-73
2021/06/21 06:43:23;;;;;;;;;;;13.40;99.90;;;;;;5096918;28;19908;-72
2021/06/21 06:45:50;;;;;;;;;;;13.30;99.90;;;;;;5096487;28;20363;-70
2021/06/21 06:48:17;;;;;;;;;;;13.30;99.90;;;;;;5098619;28;19939;-72
2021/06/21 06:50:43;;;;;;;;;;;13.30;99.90;;;;;;5101766;28;19908;-70
2021/06/21 06:53:10;;;;;;;;;;;13.20;99.90;;;;;;5099245;28;19919;-71
2021/06/21 06:58:21;;;;;;;;;;;13.20;99.90;;;;;;5096774;28;20289;-72
2021/06/21 07:00:48;;;;;;;;;;;13.10;99.90;;;;;;5096293;28;19915;-71
2021/06/21 07:03:15;;;;;;;;;;;13.10;99.90;;;;;;5096218;28;20278;-70
2021/06/21 07:05:43;;;;;;;;;;;13.20;99.90;;;;;;5096081;28;19948;-70
2021/06/21 07:08:09;;;;;;;;;;;13.20;99.90;;;;;;5096161;28;19976;-71
2021/06/21 07:10:36;;;;;;;;;;;13.20;99.90;;;;;;5096138;28;19994;-73
2021/06/21 07:13:03;;;;;;;;;;;13.20;99.90;;;;;;5095665;28;19920;-71
2021/06/21 07:15:29;;;;;;;;;;;13.20;99.90;;;;;;5096066;28;20426;-70
2021/06/21 07:17:56;;;;;;;;;;;13.20;99.90;;;;;;5096055;28;20385;-69
2021/06/21 07:20:23;;;;;;;;;;;13.20;99.90;;;;;;5095941;28;20362;-72
2021/06/21 07:22:49;;;;;;;;;;;13.20;99.90;;;;;;5082126;28;19914;-72
2021/06/21 07:25:16;;;;;;;;;;;13.20;99.90;;;;;;5075578;28;20387;-72
2021/06/21 07:27:43;;;;;;;;;;;13.20;99.90;;;;;;5075195;28;19909;-70
2021/06/21 07:30:10;;;;;;;;;;;13.10;99.90;;;;;;5075352;28;19932;-71
2021/06/21 07:32:36;;;;;;;;;;;13.10;99.90;;;;;;5074766;28;19915;-71
2021/06/21 07:35:03;;;;;;;;;;;13.20;99.90;;;;;;5074959;28;19912;-70
2021/06/21 07:37:30;;;;;;;;;;;13.20;99.90;;;;;;5073830;28;20438;-70
2021/06/21 07:39:57;;;;;;;;;;;13.20;99.90;;;;;;5074021;28;19915;-69
2021/06/21 07:42:24;;;;;;;;;;;13.20;99.90;;;;;;5073170;28;20522;-72
2021/06/21 07:44:50;;;;;;;;;;;13.20;99.90;;;;;;5073021;28;20317;-70
2021/06/21 07:47:17;;;;;;;;;;;13.20;99.90;;;;;;5072623;28;19966;-71
2021/06/21 07:49:43;;;;;;;;;;;13.20;99.90;;;;;;5072907;28;20284;-71
2021/06/21 07:52:10;;;;;;;;;;;13.20;99.90;;;;;;5073030;28;19916;-69
2021/06/21 07:54:37;;;;;;;;;;;13.20;99.90;;;;;;5072630;28;20476;-69
2021/06/21 07:57:03;;;;;;;;;;;13.20;99.90;;;;;;5073023;28;19971;-71
2021/06/21 07:59:30;;;;;;;;;;;13.20;99.90;;;;;;5072571;28;19999;-71
2021/06/21 08:01:57;;;;;;;;;;;13.30;99.90;;;;;;5072312;28;20402;-69
2021/06/21 08:04:25;;;;;;;;;;;13.30;99.90;;;;;;5072783;28;19973;-71
2021/06/21 08:06:51;;;;;;;;;;;13.30;99.90;;;;;;5072243;28;19916;-71
2021/06/21 08:09:18;;;;;;;;;;;13.40;99.90;;;;;;5072616;28;19913;-70
2021/06/21 08:11:44;;;;;;;;;;;13.40;99.90;;;;;;5072268;28;19921;-71
2021/06/21 08:14:11;;;;;;;;;;;13.40;99.90;;;;;;5072395;28;19924;-70
2021/06/21 08:16:38;;;;;;;;;;;13.40;99.90;;;;;;5072186;28;19908;-70
2021/06/21 08:19:04;;;;;;;;;;;13.40;99.90;;;;;;5072017;28;19920;-69
2021/06/21 08:21:31;;;;;;;;;;;13.30;99.90;;;;;;5071681;28;20250;-72
2021/06/21 08:23:58;;;;;;;;;;;13.30;99.90;;;;;;5072325;28;19908;-71
2021/06/21 08:26:25;;;;;;;;;;;13.30;99.90;;;;;;5073004;28;20011;-71
2021/06/21 08:28:52;;;;;;;;;;;13.30;99.90;;;;;;5092965;28;20635;-70
2021/06/21 08:31:18;;;;;;;;;;;13.20;99.90;;;;;;5092582;28;19911;-70
2021/06/21 08:33:45;;;;;;;;;;;13.20;99.90;;;;;;5091721;28;19977;-73
2021/06/21 08:36:12;;;;;;;;;;;13.20;99.90;;;;;;5091960;28;20003;-72
2021/06/21 08:38:38;;;;;;;;;;;13.20;99.90;;;;;;5092322;28;20281;-70
2021/06/21 08:41:06;;;;;;;;;;;13.10;99.90;;;;;;5092450;28;19912;-73
2021/06/21 08:43:33;;;;;;;;;;;13.00;99.90;;;;;;5092480;28;20365;-71
2021/06/21 08:46:00;;;;;;;;;;;13.10;99.90;;;;;;5091003;28;19912;-71
2021/06/21 08:48:28;;;;;;;;;;;13.00;99.90;;;;;;5092584;28;19939;-71
2021/06/21 08:50:55;;;;;;;;;;;13.00;99.90;;;;;;5092246;28;19912;-72
2021/06/21 08:53:22;;;;;;;;;;;13.00;99.90;;;;;;5092260;28;19951;-70
2021/06/21 08:55:51;;;;;;;;;;;12.90;99.90;;;;;;5092188;28;19941;-72
2021/06/21 08:58:17;;;;;;;;;;;12.90;99.90;;;;;;5091909;28;19915;-72
2021/06/21 09:00:44;;;;;;;;;;;12.90;99.90;;;;;;5092444;28;20162;-71
2021/06/21 09:03:12;;;;;;;;;;;12.80;99.90;;;;;;5092347;28;19938;-71
2021/06/21 09:05:40;;;;;;;;;;;12.80;99.90;;;;;;5091762;28;19994;-73
2021/06/21 09:08:08;;;;;;;;;;;12.80;99.90;;;;;;5094257;28;20391;-71
2021/06/21 09:10:36;;;;;;;;;;;12.80;99.90;;;;;;5094126;28;19912;-70
2021/06/21 09:13:04;;;;;;;;;;;12.80;99.90;;;;;;5093886;28;20286;-72
2021/06/21 09:15:32;;;;;;;;;;;12.80;99.90;;;;;;5093747;28;19908;-70
2021/06/21 09:18:00;;;;;;;;;;;12.70;99.90;;;;;;5093635;28;20274;-71
2021/06/21 09:20:28;;;;;;;;;;;12.70;99.90;;;;;;5093855;28;19908;-70
2021/06/21 09:23:00;;;;;;;;;;;12.70;99.90;;;;;;5093700;28;20325;-70
2021/06/21 09:25:27;;;;;;;;;;;12.60;99.90;;;;;;5093757;28;19961;-72
2021/06/21 09:27:55;;;;;;;;;;;12.60;99.90;;;;;;5093559;28;20408;-72
2021/06/21 09:30:22;;;;;;;;;;;12.60;99.90;;;;;;5093810;28;19977;-73
2021/06/21 09:32:50;;;;;;;;;;;12.60;99.90;;;;;;5093503;28;19912;-71
2021/06/21 09:35:30;;;;;;;;;;;12.60;99.90;;;;;;5093563;28;19995;-70
2021/06/21 09:37:57;;;;;;;;;;;12.60;99.90;;;;;;5093687;28;20011;-70
2021/06/21 09:40:30;;;;;;;;;;;12.50;99.90;;;;;;5093837;28;19945;-69
2021/06/21 09:42:57;;;;;;;;;;;12.50;99.90;;;;;;5093522;28;19912;-71
2021/06/21 09:45:24;;;;;;;;;;;12.50;99.90;;;;;;5093351;28;19908;-70
2021/06/21 09:47:51;;;;;;;;;;;12.50;99.90;;;;;;5093172;28;19912;-71
2021/06/21 09:50:25;;;;;;;;;;;12.40;99.90;;;;;;5093438;28;20281;-70
2021/06/21 09:53:01;;;;;;;;;;;12.50;99.90;;;;;;5093381;28;20000;-70
2021/06/21 09:55:28;;;;;;;;;;;12.40;99.90;;;;;;5081797;28;19908;-71
2021/06/21 09:58:04;;;;;;;;;;;12.40;99.90;;;;;;5074888;28;19962;-72
2021/06/21 10:00:30;;;;;;;;;;;12.30;99.90;;;;;;5080987;28;19909;-68
2021/06/21 10:03:17;;;;;;;;;;;12.30;99.90;;;;;;5081935;28;19932;-69
2021/06/21 10:06:04;;;;;;;;;;;12.30;99.90;;;;;;5072595;28;19908;-71
2021/06/21 10:08:49;;;;;;;;;;;12.20;99.90;;;;;;5077995;28;19916;-69
2021/06/21 10:11:34;;;;;;;;;;;12.20;99.90;;;;;;5078416;28;19915;-69
2021/06/21 10:14:01;;;;;;;;;;;12.20;99.90;;;;;;5079453;28;20011;-70
2021/06/21 10:16:31;;;;;;;;;;;12.10;99.90;;;;;;5079385;28;19908;-70
2021/06/21 10:18:58;;;;;;;;;;;12.20;99.90;;;;;;5079719;28;19954;-70
2021/06/21 10:21:26;;;;;;;;;;;12.20;99.90;;;;;;5078822;28;19916;-72
2021/06/21 10:23:53;;;;;;;;;;;12.10;99.90;;;;;;5079499;28;19908;-69
2021/06/21 10:26:20;;;;;;;;;;;12.10;99.90;;;;;;5079570;28;20368;-70
2021/06/21 10:28:47;;;;;;;;;;;12.10;99.90;;;;;;5079309;28;19947;-72
2021/06/21 10:31:13;;;;;;;;;;;12.00;99.90;;;;;;5079265;28;19920;-72
2021/06/21 10:33:40;;;;;;;;;;;12.00;99.90;;;;;;5086279;28;19920;-70
2021/06/21 10:36:08;;;;;;;;;;;12.00;99.90;;;;;;5098495;28;20247;-69
2021/06/21 10:38:34;;;;;;;;;;;12.00;99.90;;;;;;5099349;28;20381;-69
2021/06/21 10:41:03;;;;;;;;;;;12.00;99.90;;;;;;5096734;28;19993;-70
2021/06/21 10:43:46;;;;;;;;;;;12.00;99.90;;;;;;5098765;28;20269;-71
2021/06/21 10:46:24;;;;;;;;;;;12.00;99.90;;;;;;5099208;28;19916;-71
2021/06/21 10:49:14;;;;;;;;;;;12.00;99.90;;;;;;5099182;28;19915;-69
2021/06/21 10:51:41;;;;;;;;;;;12.00;99.90;;;;;;5097277;28;19990;-70
2021/06/21 10:54:28;;;;;;;;;;;12.00;99.90;;;;;;5092431;28;19920;-69
2021/06/21 10:56:57;;;;;;;;;;;12.00;99.90;;;;;;5088826;28;19934;-73
2021/06/21 10:59:25;;;;;;;;;;;12.00;99.90;;;;;;5097140;28;19911;-69
2021/06/21 11:01:53;;;;;;;;;;;11.90;99.90;;;;;;5096974;28;19908;-70
2021/06/21 11:04:32;;;;;;;;;;;11.90;99.90;;;;;;5096513;28;19965;-72
2021/06/21 11:07:11;;;;;;;;;;;11.90;99.90;;;;;;5095897;28;19947;-71
2021/06/21 11:09:45;;;;;;;;;;;11.90;99.90;;;;;;5093352;28;19995;-69
2021/06/21 11:12:23;;;;;;;;;;;11.90;99.90;;;;;;5093843;28;20363;-72
2021/06/21 11:15:02;;;;;;;;;;;11.80;99.90;;;;;;5093762;28;19919;-71
2021/06/21 11:17:33;;;;;;;;;;;11.80;99.90;;;;;;5093581;28;19912;-71
2021/06/21 11:20:18;;;;;;;;;;;11.80;99.90;;;;;;5092355;28;19966;-72
2021/06/21 11:22:50;;;;;;;;;;;11.70;99.90;;;;;;5093011;28;19973;-71
2021/06/21 11:25:21;;;;;;;;;;;11.80;99.90;;;;;;5093854;28;20290;-72
2021/06/21 11:27:48;;;;;;;;;;;11.80;99.90;;;;;;5093476;28;20389;-73
2021/06/21 11:30:21;;;;;;;;;;;11.80;99.90;;;;;;5093559;28;19932;-73
2021/06/21 11:32:57;;;;;;;;;;;11.80;99.90;;;;;;5093489;28;20002;-72
2021/06/21 11:35:42;;;;;;;;;;;11.80;99.90;;;;;;5092621;28;19908;-73
2021/06/21 11:38:27;;;;;;;;;;;11.80;99.90;;;;;;5093532;28;19957;-71
2021/06/21 11:41:11;;;;;;;;;;;11.80;99.90;;;;;;5092001;28;19969;-72
2021/06/21 11:43:48;;;;;;;;;;;11.70;99.90;;;;;;5092972;28;19960;-70
2021/06/21 11:46:33;;;;;;;;;;;11.70;99.90;;;;;;5091866;28;20366;-72
2021/06/21 11:49:04;;;;;;;;;;;11.70;99.90;;;;;;5091407;28;19920;-72
2021/06/21 11:51:30;;;;;;;;;;;11.60;99.90;;;;;;5092167;28;20507;-72
2021/06/21 11:53:59;;;;;;;;;;;11.60;99.90;;;;;;5093166;28;19943;-73
2021/06/21 11:56:26;;;;;;;;;;;11.60;99.90;;;;;;5093207;28;19961;-71
2021/06/21 11:58:54;;;;;;;;;;;11.60;99.90;;;;;;5093096;28;19908;-72
2021/06/21 12:01:25;;;;;;;;;;;11.60;99.90;;;;;;5091363;28;20264;-73
2021/06/21 12:03:55;;;;;;;;;;;11.60;99.90;;;;;;5092818;28;19908;-73
2021/06/21 12:06:22;;;;;;;;;;;11.60;99.90;;;;;;5092776;28;19944;-72
2021/06/21 12:08:49;;;;;;;;;;;11.60;99.90;;;;;;5093407;28;19908;-73
2021/06/21 12:11:23;;;;;;;;;;;11.50;99.90;;;;;;5100652;28;19908;-73
2021/06/21 12:14:02;;;;;;;;;;;11.50;99.90;;;;;;5103208;28;19980;-73
2021/06/21 12:16:30;;;;;;;;;;;11.50;99.90;;;;;;5094178;28;19908;-72
2021/06/21 12:18:58;;;;;;;;;;;11.50;99.90;;;;;;5092803;28;19912;-71
2021/06/21 12:21:32;;;;;;;;;;;11.50;99.90;;;;;;5091760;28;19916;-71
2021/06/21 12:24:13;;;;;;;;;;;11.40;99.90;;;;;;5092754;28;20326;-71
2021/06/21 12:26:40;;;;;;;;;;;11.50;99.90;;;;;;5092745;28;20002;-70
2021/06/21 12:29:25;;;;;;;;;;;11.40;99.90;;;;;;5092184;28;19919;-70
2021/06/21 12:31:55;;;;;;;;;;;11.40;99.90;;;;;;5092014;28;19912;-71
2021/06/21 12:34:40;;;;;;;;;;;11.40;99.90;;;;;;5090971;28;19920;-72
2021/06/21 12:37:14;;;;;;;;;;;11.40;99.90;;;;;;5092053;28;19913;-71
2021/06/21 12:39:41;;;;;;;;;;;11.30;99.90;;;;;;5092187;28;20367;-71
2021/06/21 12:42:11;;;;;;;;;;;11.40;99.90;;;;;;5091756;28;19908;-71
2021/06/21 12:44:38;;;;;;;;;;;11.40;99.90;;;;;;5092113;28;19960;-72
2021/06/21 12:47:21;;;;;;;;;;;11.40;99.90;;;;;;5090742;28;19920;-71
2021/06/21 12:49:49;;;;;;;;;;;11.40;99.90;;;;;;5091267;28;19912;-71
2021/06/21 12:52:18;;;;;;;;;;;11.40;99.90;;;;;;5091299;28;19912;-72
2021/06/21 12:54:45;;;;;;;;;;;11.40;99.90;;;;;;5080394;28;19924;-72
2021/06/21 12:57:12;;;;;;;;;;;11.40;99.90;;;;;;5073893;28;20377;-71
2021/06/21 12:59:43;;;;;;;;;;;11.40;99.90;;;;;;5073543;28;19962;-72
2021/06/21 13:02:23;;;;;;;;;;;11.40;99.90;;;;;;5072464;28;20322;-73
2021/06/21 13:05:02;;;;;;;;;;;11.40;99.90;;;;;;5073447;28;19909;-72
2021/06/21 13:07:29;;;;;;;;;;;11.40;99.90;;;;;;5073687;28;19912;-72
2021/06/21 13:09:57;;;;;;;;;;;11.40;99.90;;;;;;5073587;28;19909;-71
2021/06/21 13:12:30;;;;;;;;;;;11.40;99.90;;;;;;5073427;28;20370;-72
2021/06/21 13:15:11;;;;;;;;;;;11.40;99.90;;;;;;5073434;28;19917;-73
2021/06/21 13:17:39;;;;;;;;;;;11.50;99.90;;;;;;5073348;28;20294;-71
2021/06/21 13:20:06;;;;;;;;;;;11.40;99.90;;;;;;5085025;28;19999;-72
2021/06/21 13:22:32;;;;;;;;;;;11.50;99.90;;;;;;5091767;28;20274;-73
2021/06/21 13:25:17;;;;;;;;;;;11.50;99.90;;;;;;5092480;28;19908;-72
2021/06/21 13:27:54;;;;;;;;;;;11.50;99.90;;;;;;5093522;28;19979;-72
2021/06/21 13:30:23;;;;;;;;;;;11.60;99.90;;;;;;5093492;28;19912;-72
2021/06/21 13:32:50;;;;;;;;;;;11.60;99.90;;;;;;5093091;28;19915;-71
2021/06/21 13:35:18;;;;;;;;;;;11.60;99.90;;;;;;5093408;28;20335;-71
2021/06/21 13:37:46;;;;;;;;;;;11.50;99.90;;;;;;5093347;28;19916;-69
2021/06/21 13:40:14;;;;;;;;;;;11.50;99.90;;;;;;5093445;28;19995;-72
2021/06/21 13:42:44;;;;;;;;;;;11.50;99.90;;;;;;5093276;28;20289;-71
2021/06/21 13:45:12;;;;;;;;;;;11.50;99.90;;;;;;5093491;28;19908;-71
2021/06/21 13:47:41;;;;;;;;;;;11.50;99.90;;;;;;5093265;28;19931;-73
2021/06/21 13:50:10;;;;;;;;;;;11.50;99.90;;;;;;5092451;28;19909;-72
2021/06/21 13:52:41;;;;;;;;;;;11.50;99.90;;;;;;5092545;28;19915;-73
2021/06/21 13:55:08;;;;;;;;;;;11.40;99.90;;;;;;5093179;28;19922;-72
2021/06/21 13:57:39;;;;;;;;;;;11.40;99.90;;;;;;5092396;28;20374;-72
2021/06/21 14:00:09;;;;;;;;;;;11.40;99.90;;;;;;5093261;28;19912;-73
2021/06/21 14:02:37;;;;;;;;;;;11.40;99.90;;;;;;5092491;28;20370;-72
2021/06/21 14:05:04;;;;;;;;;;;11.50;99.90;;;;;;5092589;28;19908;-71
2021/06/21 14:07:31;;;;;;;;;;;11.40;99.90;;;;;;5092942;28;19908;-70
2021/06/21 14:09:58;;;;;;;;;;;11.40;99.90;;;;;;5093070;28;19932;-70
2021/06/21 14:12:26;;;;;;;;;;;11.40;99.90;;;;;;5093044;28;20451;-69
2021/06/21 14:14:53;;;;;;;;;;;11.40;99.90;;;;;;5093111;28;19923;-71
2021/06/21 14:17:22;;;;;;;;;;;11.30;99.90;;;;;;5092980;28;19915;-70
2021/06/21 14:19:49;;;;;;;;;;;11.30;99.90;;;;;;5092727;28;20324;-70
2021/06/21 14:22:16;;;;;;;;;;;11.30;99.90;;;;;;5092871;28;19908;-70
2021/06/21 14:24:44;;;;;;;;;;;11.20;99.90;;;;;;5092995;28;19908;-70
2021/06/21 14:27:11;;;;;;;;;;;11.20;99.90;;;;;;5093075;28;19912;-71
2021/06/21 14:29:37;;;;;;;;;;;11.20;99.90;;;;;;5092762;28;19908;-72